Time;durP1;ratioP1;P1;durP2;ratioP2;P2;SDS_P1;SDS_P2;PMS_P1;PMS_P2;Temp;Humidity;BMP_temperature;BMP_pressure;BME280_temperature;BME280_humidity;BME280_pressure;Samples;Min_cycle;Max_cycle;Signal;HPM_P1;HPM_P2
2022/06/12 00:03:53;;;;;;;4.27;3.30;;;23.60;60.20;;;23.97;42.07;99191.38;4906116;28;124662;-92
2022/06/12 00:06:59;;;;;;;5.90;3.80;;;23.50;60.40;;;23.93;42.25;99191.34;4894611;28;118848;-93
2022/06/12 00:10:24;;;;;;;3.00;2.70;;;23.50;60.60;;;23.89;42.19;99199.00;4896678;28;118266;-94
2022/06/12 00:12:51;;;;;;;4.07;3.10;;;23.40;60.70;;;23.85;42.47;99195.31;4898149;28;124800;-94
2022/06/12 00:15:58;;;;;;;4.83;3.30;;;23.30;60.80;;;23.79;42.61;99192.06;4914566;28;123562;-94
2022/06/12 00:18:43;;;;;;;4.80;3.73;;;23.30;61.00;;;23.78;42.84;99204.56;4893340;28;120156;-94
2022/06/12 00:24:52;;;;;;;6.17;4.23;;;23.30;61.40;;;23.68;42.91;99196.78;4892528;28;124009;-94
2022/06/12 00:31:00;;;;;;;4.00;2.87;;;23.20;61.70;;;23.61;42.88;99196.72;4906435;28;119909;-94
2022/06/12 00:34:26;;;;;;;3.40;3.10;;;23.10;61.80;;;23.54;43.16;99196.69;4900466;28;119735;-93
2022/06/12 00:37:49;;;;;;;3.73;2.67;;;23.10;62.00;;;23.47;43.31;99191.78;4906705;28;123999;-93
2022/06/12 00:41:14;;;;;;;3.60;2.90;;;23.00;62.10;;;23.42;43.40;99189.31;4890514;28;124556;-94
2022/06/12 00:43:43;;;;;;;3.50;2.90;;;23.00;62.30;;;23.41;43.46;99186.91;4900698;28;119260;-94
2022/06/12 00:46:57;;;;;;;2.70;2.50;;;22.90;62.50;;;23.35;43.56;99192.91;4894371;28;118804;-94
2022/06/12 00:49:49;;;;;;;3.50;2.83;;;22.90;62.60;;;23.33;43.45;99195.28;4886979;28;123791;-94
2022/06/12 00:56:08;;;;;;;4.10;2.60;;;22.80;63.00;;;23.24;43.97;99189.16;4919802;28;120410;-94
2022/06/12 00:59:14;;;;;;;3.57;2.60;;;22.70;63.10;;;23.18;43.96;99190.69;4907751;28;118628;-94
2022/06/12 01:01:52;;;;;;;3.10;2.73;;;22.70;63.30;;;23.18;43.77;99198.34;4898120;28;123435;-93
2022/06/12 01:10:57;;;;;;;3.10;2.40;;;22.60;63.80;;;23.04;44.18;99185.72;4919858;28;120033;-85
2022/06/12 01:13:42;;;;;;;2.60;2.40;;;22.50;63.90;;;23.01;44.47;99180.88;4899424;28;123137;-92
2022/06/12 01:16:29;;;;;;;3.30;2.50;;;22.50;64.10;;;22.98;44.15;99176.03;4896956;28;121482;-92
2022/06/12 01:19:40;;;;;;;3.00;2.40;;;22.50;64.10;;;22.94;44.24;99192.88;4884949;28;119647;-93
2022/06/12 01:23:04;;;;;;;3.47;2.70;;;22.50;64.30;;;22.88;44.39;99188.75;4896179;28;119667;-92
2022/06/12 01:26:28;;;;;;;2.43;2.20;;;22.40;64.30;;;22.84;44.29;99192.75;4908117;28;123985;-93
2022/06/12 01:29:35;;;;;;;3.37;2.20;;;22.40;64.60;;;22.78;44.78;99183.81;4902420;28;124527;-93
2022/06/12 01:32:30;;;;;;;2.93;2.63;;;22.30;64.60;;;22.76;44.32;99179.78;4883466;28;118067;-92
2022/06/12 01:35:27;;;;;;;2.53;2.23;;;22.30;64.80;;;22.75;44.70;99180.97;4882122;28;117344;-92
2022/06/12 01:42:16;;;;;;;3.20;2.67;;;22.20;64.90;;;22.65;45.02;99193.75;4894933;28;124767;-94
2022/06/12 01:48:53;;;;;;;4.00;2.23;;;22.10;65.30;;;22.57;45.17;99180.75;4896392;28;119456;-95
2022/06/12 01:55:56;;;;;;;2.57;2.20;;;22.10;65.70;;;22.49;45.26;99189.13;4902183;28;124295;-94
2022/06/12 01:58:46;;;;;;;3.90;2.33;;;22.00;65.70;;;22.46;44.97;99178.63;4860058;29;119638;-93
2022/06/12 02:01:29;;;;;;;2.30;2.07;;;22.00;65.90;;;22.46;45.26;99175.81;4897223;28;118566;-94
2022/06/12 02:04:14;;;;;;;4.13;2.20;;;21.90;66.00;;;22.44;44.98;99177.38;4909521;28;123861;-95
2022/06/12 02:14:11;;;;;;;2.63;2.33;;;21.90;66.40;;;22.34;45.25;99175.25;4889654;28;120020;-93
2022/06/12 02:16:45;;;;;;;2.50;2.30;;;21.80;66.50;;;22.33;45.55;99177.25;4855188;29;123875;-94
2022/06/12 02:19:31;;;;;;;2.47;2.10;;;21.80;66.70;;;22.28;45.38;99177.59;4870544;28;123491;-93
2022/06/12 02:22:07;;;;;;;4.13;2.63;;;21.80;66.80;;;22.24;45.47;99179.53;4884097;28;120126;-93
2022/06/12 02:25:04;;;;;;;3.03;2.07;;;21.70;66.90;;;22.14;45.86;99181.00;4897600;28;119600;-93
2022/06/12 02:28:01;;;;;;;4.10;2.47;;;21.70;67.00;;;22.09;46.08;99186.94;4876927;28;123207;-93
2022/06/12 02:34:27;;;;;;;2.37;2.17;;;21.60;67.30;;;22.03;45.77;99182.81;4878032;29;120445;-92
2022/06/12 02:41:20;;;;;;;3.70;2.33;;;21.50;67.80;;;21.91;46.11;99183.88;4875984;29;125172;-93
2022/06/12 02:47:48;;;;;;;4.03;2.53;;;21.40;68.20;;;21.88;46.65;99186.63;4896166;28;120372;-94
2022/06/12 02:54:26;;;;;;;3.27;2.40;;;21.40;68.70;;;21.84;46.87;99189.38;4897500;28;124487;-93
2022/06/12 02:57:38;;;;;;;3.37;2.60;;;21.30;68.80;;;21.81;46.81;99181.69;4875981;28;123433;-93
2022/06/12 03:01:01;;;;;;;3.77;2.33;;;21.30;69.00;;;21.78;46.98;99183.25;4876699;28;118662;-94
2022/06/12 03:11:17;;;;;;;3.20;2.73;;;21.20;69.60;;;21.69;47.41;99191.16;4897331;28;124766;-93
2022/06/12 03:13:46;;;;;;;3.33;2.50;;;21.20;69.90;;;21.69;47.11;99185.53;4884107;28;119049;-93
2022/06/12 03:16:34;;;;;;;3.07;2.40;;;21.10;70.00;;;21.69;47.35;99190.38;4909933;28;119678;-94
2022/06/12 03:26:54;;;;;;;4.90;3.60;;;21.10;70.60;;;21.53;47.41;99194.13;4913226;28;121075;-92
2022/06/12 03:30:02;;;;;;;4.03;3.03;;;21.00;70.60;;;21.50;47.38;99183.63;4893621;28;119723;-93
2022/06/12 03:33:01;;;;;;;3.27;2.70;;;21.00;70.70;;;21.51;47.42;99190.88;4906093;28;124620;-93
2022/06/12 03:40:08;;;;;;;2.77;2.50;;;21.00;71.00;;;21.44;47.41;99185.16;4897999;28;120383;-94
2022/06/12 03:46:37;;;;;;;2.93;2.67;;;20.90;71.20;;;21.41;47.52;99191.50;4933638;28;124515;-93
2022/06/12 03:53:24;;;;;;;3.37;2.20;;;20.90;71.60;;;21.39;47.87;99193.91;4896013;28;120290;-94
2022/06/12 03:59:47;;;;;;;3.80;2.60;;;20.90;72.00;;;21.43;48.05;99200.38;4906044;28;125155;-86
2022/06/12 04:06:07;;;;;;;2.53;2.33;;;20.90;72.30;;;21.56;48.09;99193.38;4927586;28;120463;-94
2022/06/12 04:12:22;;;;;;;3.17;2.10;;;21.00;72.50;;;21.60;48.02;99183.00;4896132;28;125130;-94
2022/06/12 04:18:33;;;;;;;2.10;1.90;;;21.00;72.40;;;21.57;47.90;99186.56;4895546;28;120414;-93
2022/06/12 04:21:50;;;;;;;2.07;1.90;;;21.00;72.50;;;21.57;48.01;99188.56;4882831;28;117676;-93
2022/06/12 04:24:56;;;;;;;2.80;2.60;;;21.10;72.50;;;21.55;47.84;99186.13;4907791;28;124620;-93
2022/06/12 04:27:42;;;;;;;2.37;2.17;;;21.10;72.50;;;21.54;48.05;99192.94;4883614;28;123228;-94
2022/06/12 04:30:29;;;;;;;3.10;2.20;;;21.00;72.50;;;21.55;47.58;99188.94;4905896;28;119829;-93
2022/06/12 04:33:34;;;;;;;2.10;1.93;;;21.10;72.60;;;21.54;47.71;99184.50;4925478;28;120794;-94
2022/06/12 04:36:59;;;;;;;2.03;1.80;;;21.00;72.60;;;21.54;48.03;99190.13;4917547;28;124125;-93
2022/06/12 04:39:31;;;;;;;2.43;2.03;;;21.10;72.80;;;21.57;48.05;99191.38;4907472;28;123686;-94
2022/06/12 04:42:37;;;;;;;2.33;2.13;;;21.00;72.80;;;21.55;47.96;99190.94;4908678;28;118769;-93
2022/06/12 04:48:49;;;;;;;2.20;2.00;;;21.00;72.80;;;21.56;48.02;99187.75;4916921;28;124681;-94
2022/06/12 04:51:17;;;;;;;2.50;2.20;;;21.00;73.00;;;21.58;47.94;99195.81;4899550;28;123510;-92
2022/06/12 04:57:26;;;;;;;2.40;2.20;;;21.00;73.00;;;21.59;47.61;99198.22;4900328;28;119893;-92
2022/06/12 04:59:55;;;;;;;2.10;1.90;;;21.00;73.30;;;21.64;47.92;99207.56;4895860;28;124811;-92
2022/06/12 05:02:23;;;;;;;2.40;2.20;;;21.00;73.30;;;21.69;47.70;99212.88;4892711;28;122603;-93
2022/06/12 05:05:11;;;;;;;2.50;2.30;;;21.10;73.50;;;21.71;47.85;99204.84;4894522;28;119404;-94
2022/06/12 05:07:58;;;;;;;2.77;2.57;;;21.10;73.50;;;21.74;47.75;99209.72;4894542;28;119006;-93
2022/06/12 05:10:26;;;;;;;2.30;2.10;;;21.20;73.70;;;21.77;47.81;99208.97;4895840;28;123548;-93
2022/06/12 05:12:53;;;;;;;2.67;2.43;;;21.20;73.80;;;21.78;48.16;99202.16;4894165;28;123191;-93
2022/06/12 05:15:19;;;;;;;3.80;2.40;;;21.20;73.90;;;21.80;48.15;99203.41;4907742;28;118829;-92
2022/06/12 05:17:48;;;;;;;3.90;3.00;;;21.20;74.00;;;21.77;47.84;99204.16;4895847;28;118546;-93
2022/06/12 05:20:26;;;;;;;2.50;2.30;;;21.20;74.00;;;21.80;48.29;99208.22;4896542;28;123097;-93
2022/06/12 05:23:12;;;;;;;4.63;3.00;;;21.20;74.10;;;21.84;48.27;99209.06;4887024;28;123415;-93
2022/06/12 05:26:00;;;;;;;3.33;2.70;;;21.20;74.20;;;21.86;48.24;99209.50;4884271;28;118830;-93
2022/06/12 05:28:46;;;;;;;2.50;2.30;;;21.30;74.40;;;21.93;47.82;99214.44;4899840;28;119788;-93
2022/06/12 05:31:14;;;;;;;2.60;2.40;;;21.30;74.50;;;21.99;48.20;99213.72;4904775;28;124464;-93
2022/06/12 05:33:41;;;;;;;3.03;2.73;;;21.30;74.60;;;22.05;48.10;99209.38;4902238;28;123816;-92
2022/06/12 05:36:15;;;;;;;2.80;2.50;;;21.40;74.70;;;22.11;48.05;99209.06;4908701;28;119932;-93
2022/06/12 05:38:44;;;;;;;6.90;2.43;;;21.40;74.70;;;22.17;47.89;99210.38;4903483;28;118785;-93
2022/06/12 05:44:52;;;;;;;3.57;2.77;;;21.50;74.90;;;22.22;47.92;99201.63;4916867;28;124321;-93
2022/06/12 05:51:01;;;;;;;2.87;2.67;;;21.60;75.20;;;22.34;47.94;99198.56;4914712;28;119371;-93
2022/06/12 05:57:10;;;;;;;2.63;2.43;;;21.80;75.40;;;22.50;47.92;99195.56;4906191;28;124160;-92
2022/06/12 05:59:58;;;;;;;3.50;2.90;;;21.80;76.10;;;22.54;47.71;99196.44;4898990;28;119084;-93
2022/06/12 06:03:03;;;;;;;3.50;2.97;;;21.90;75.40;;;22.56;48.06;99194.00;4891587;28;118743;-93
2022/06/12 06:06:07;;;;;;;3.87;3.00;;;21.90;75.30;;;22.63;47.74;99204.56;4895146;28;123647;-94
2022/06/12 06:08:37;;;;;;;2.90;2.63;;;22.00;75.40;;;22.71;47.94;99206.28;4886232;28;122836;-93
2022/06/12 06:11:41;;;;;;;5.80;3.10;;;22.00;75.30;;;22.77;47.80;99210.38;4910255;28;118861;-92
2022/06/12 06:17:50;;;;;;;3.33;2.70;;;22.20;75.30;;;22.93;47.33;99208.13;4890421;28;124289;-94
2022/06/12 06:20:38;;;;;;;2.77;2.57;;;22.30;75.40;;;23.02;47.45;99204.22;4888100;28;123861;-93
2022/06/12 06:23:07;;;;;;;3.20;2.77;;;22.30;75.20;;;23.10;47.04;99209.53;4889719;28;118909;-92
2022/06/12 06:25:37;;;;;;;3.00;2.70;;;22.40;75.20;;;23.19;46.96;99200.81;4879194;28;120179;-92
2022/06/12 06:28:07;;;;;;;3.00;2.53;;;22.50;75.10;;;23.28;47.12;99204.09;4891313;28;123923;-92
2022/06/12 06:30:35;;;;;;;2.57;2.37;;;22.60;75.10;;;23.35;46.91;99204.19;4869665;28;123454;-93
2022/06/12 06:33:03;;;;;;;3.13;2.83;;;22.60;74.90;;;23.42;46.73;99213.88;4883612;28;119985;-92
2022/06/12 06:36:09;;;;;;;5.07;2.67;;;22.70;74.80;;;23.44;46.61;99208.69;4881588;28;119597;-93
2022/06/12 06:38:38;;;;;;;3.77;2.70;;;22.80;74.60;;;23.52;46.55;99213.19;4882381;28;122997;-93
2022/06/12 06:41:26;;;;;;;2.40;2.20;;;22.80;74.60;;;23.60;46.46;99214.88;4883301;28;123201;-93
2022/06/12 06:46:41;;;;;;;3.33;2.50;;;23.00;74.50;;;23.75;46.20;99211.00;4890992;28;119898;-94
2022/06/12 06:49:47;;;;;;;3.70;3.10;;;23.10;74.40;;;23.78;46.03;99210.22;4863209;29;123463;-92
2022/06/12 06:52:14;;;;;;;4.53;2.70;;;23.10;74.20;;;23.87;46.01;99212.69;4869235;28;121681;-94
2022/06/12 06:55:01;;;;;;;3.07;2.70;;;23.10;74.10;;;23.93;45.96;99219.56;4884459;28;119013;-94
2022/06/12 06:57:28;;;;;;;2.97;2.30;;;23.20;74.00;;;24.05;45.99;99210.00;4885481;28;118535;-93
2022/06/12 06:59:55;;;;;;;5.30;2.23;;;23.30;74.20;;;24.14;45.63;99210.44;4885268;28;124844;-95
2022/06/12 07:02:21;;;;;;;3.80;2.57;;;23.40;74.00;;;24.25;45.79;99213.34;4883731;28;123579;-92
2022/06/12 07:05:29;;;;;;;2.93;2.70;;;23.50;73.90;;;24.27;45.27;99216.56;4891476;28;117569;-96
2022/06/12 07:08:00;;;;;;;3.30;3.00;;;23.60;73.70;;;24.35;45.35;99212.59;4891094;28;118254;-94
2022/06/12 07:10:29;;;;;;;3.03;2.73;;;23.60;73.60;;;24.41;45.24;99208.16;4889908;28;123539;-94
2022/06/12 07:12:59;;;;;;;3.33;2.90;;;23.70;73.40;;;24.47;45.06;99202.97;4887585;28;124079;-93
2022/06/12 07:15:30;;;;;;;4.23;3.20;;;23.70;73.40;;;24.54;44.91;99219.16;4892818;28;119991;-95
2022/06/12 07:17:58;;;;;;;3.33;2.80;;;23.90;74.00;;;24.57;45.16;99212.72;4882935;28;118663;-95
2022/06/12 07:21:04;;;;;;;7.00;3.37;;;23.90;73.20;;;24.64;44.92;99205.09;4889239;28;124441;-94
2022/06/12 07:23:34;;;;;;;7.30;3.40;;;23.90;73.10;;;24.76;44.68;99205.94;4888814;28;123347;-94
2022/06/12 07:26:08;;;;;;;4.00;3.00;;;24.00;73.00;;;24.82;44.61;99205.13;4887330;28;118368;-94
2022/06/12 07:28:37;;;;;;;3.80;3.03;;;24.10;72.90;;;24.89;44.37;99195.88;4885059;28;119333;-95
2022/06/12 07:31:07;;;;;;;8.37;3.40;;;24.10;72.80;;;24.95;44.62;99202.75;4903327;28;124110;-94
2022/06/12 07:33:33;;;;;;;4.17;2.40;;;24.20;72.60;;;25.02;44.42;99205.63;4877142;28;122650;-96
2022/06/12 07:36:01;;;;;;;5.80;2.50;;;24.30;72.60;;;25.10;44.26;99197.97;4866641;28;119373;-92
2022/06/12 07:38:28;;;;;;;4.57;2.53;;;24.30;72.40;;;25.19;44.15;99194.75;4875247;28;118887;-93
2022/06/12 07:41:03;;;;;;;3.33;2.63;;;24.40;72.40;;;25.27;44.36;99187.91;4888552;28;124143;-93
2022/06/12 07:43:35;;;;;;;4.10;2.90;;;24.50;72.30;;;25.34;44.02;99185.91;4875917;28;122064;-93
2022/06/12 07:46:05;;;;;;;4.53;2.87;;;24.60;71.90;;;25.39;43.76;99189.53;4854929;28;118802;-94
2022/06/12 07:48:32;;;;;;;5.00;2.90;;;24.60;71.80;;;25.43;43.72;99174.19;4873839;28;118914;-92
2022/06/12 07:51:21;;;;;;;3.80;3.10;;;24.70;71.60;;;25.49;43.34;99181.03;4892928;28;123833;-93
2022/06/12 07:53:51;;;;;;;2.97;2.70;;;24.80;71.60;;;25.57;43.46;99179.81;4829182;29;124243;-93
2022/06/12 07:56:20;;;;;;;2.70;2.50;;;24.80;71.50;;;25.66;43.11;99187.13;4832362;29;119616;-93
2022/06/12 07:58:46;;;;;;;6.73;3.03;;;24.90;71.40;;;25.72;43.14;99179.84;4832294;29;118294;-94
2022/06/12 08:01:19;;;;;;;3.97;3.10;;;25.00;71.00;;;25.75;43.15;99173.34;4828785;29;123915;-94
2022/06/12 08:03:45;;;;;;;2.97;2.37;;;25.00;70.80;;;25.82;42.82;99169.69;4817703;29;124015;-94
2022/06/12 08:06:12;;;;;;;4.10;3.20;;;25.10;70.70;;;25.90;43.07;99171.34;4817220;29;120350;-93
2022/06/12 08:08:41;;;;;;;2.90;2.50;;;25.20;70.60;;;25.97;42.53;99163.63;4830901;29;120829;-94
2022/06/12 08:11:11;;;;;;;3.93;2.50;;;25.20;70.50;;;26.06;42.32;99165.22;4831099;29;124048;-94
2022/06/12 08:13:38;;;;;;;2.87;2.67;;;25.30;70.30;;;26.15;42.18;99168.47;4802351;29;123762;-95
2022/06/12 08:16:06;;;;;;;7.63;3.00;;;25.40;70.10;;;26.19;42.43;99169.25;4816328;29;119231;-95
2022/06/12 08:18:35;;;;;;;4.43;3.37;;;25.50;69.80;;;26.20;41.96;99165.22;4834160;29;118712;-95
2022/06/12 08:21:08;;;;;;;4.57;2.37;;;25.50;69.60;;;26.25;42.07;99173.28;4815806;29;124026;-94
2022/06/12 08:23:44;;;;;;;3.20;2.37;;;25.50;69.30;;;26.31;41.83;99165.19;4805659;29;123068;-94
2022/06/12 08:26:21;;;;;;;3.57;2.77;;;25.60;69.20;;;26.36;42.13;99162.72;4832422;29;119159;-95
2022/06/12 08:29:05;;;;;;;2.33;2.10;;;25.70;69.00;;;26.44;41.85;99166.34;4833344;29;118315;-93
2022/06/12 08:31:46;;;;;;;3.07;2.60;;;25.70;68.80;;;26.50;41.60;99161.06;4868634;28;124315;-95
2022/06/12 08:34:22;;;;;;;6.70;2.80;;;25.80;68.40;;;26.54;41.07;99156.19;4869669;28;123793;-96
2022/06/12 08:36:53;;;;;;;5.10;2.57;;;25.80;68.20;;;26.58;41.43;99169.13;4876831;28;118457;-93
2022/06/12 08:39:20;;;;;;;5.20;2.93;;;25.90;68.20;;;26.65;41.58;99154.94;4872152;28;118057;-96
2022/06/12 08:42:22;;;;;;;2.63;2.40;;;26.00;68.10;;;26.72;41.38;99156.13;4849872;28;122162;-95
2022/06/12 08:45:11;;;;;;;4.27;2.80;;;26.00;67.80;;;26.81;40.68;99153.63;4879058;28;124049;-94
2022/06/12 08:48:09;;;;;;;5.27;2.67;;;26.10;67.70;;;26.82;40.84;99149.59;4861459;28;119674;-94
2022/06/12 08:51:02;;;;;;;2.83;2.53;;;26.10;67.10;;;26.86;40.46;99150.34;4894463;28;117999;-94
2022/06/12 08:54:07;;;;;;;2.77;2.57;;;26.20;66.60;;;26.84;40.25;99150.78;4875105;28;124113;-95
2022/06/12 08:56:45;;;;;;;3.67;2.63;;;26.20;66.00;;;26.91;40.14;99146.28;4858977;28;123010;-94
2022/06/12 08:59:41;;;;;;;3.10;2.40;;;26.30;66.10;;;26.94;40.31;99148.28;4871573;28;120238;-94
2022/06/12 09:02:26;;;;;;;3.23;2.67;;;26.30;65.70;;;27.02;39.76;99141.34;4872114;28;118937;-94
2022/06/12 09:04:55;;;;;;;3.20;2.63;;;26.30;65.50;;;27.07;39.26;99146.59;4868814;28;124012;-95
2022/06/12 09:07:55;;;;;;;2.90;2.60;;;26.40;65.00;;;27.09;39.17;99141.31;4899494;28;123070;-95
2022/06/12 09:10:46;;;;;;;3.47;2.87;;;26.50;64.70;;;27.14;39.56;99132.38;4871541;28;119652;-94
2022/06/12 09:13:19;;;;;;;3.23;2.73;;;26.50;64.40;;;27.21;39.19;99131.50;4868359;28;119064;-94
2022/06/12 09:16:10;;;;;;;5.43;2.70;;;26.60;64.20;;;27.24;38.61;99122.16;4864811;28;124262;-95
2022/06/12 09:19:14;;;;;;;2.47;2.20;;;26.60;63.70;;;27.28;38.54;99120.13;4863444;28;124279;-94
2022/06/12 09:22:04;;;;;;;3.93;2.00;;;26.70;63.40;;;27.34;38.67;99120.47;4881615;28;118999;-94
2022/06/12 09:24:49;;;;;;;2.70;2.13;;;26.70;63.30;;;27.40;38.20;99124.47;4874019;28;119496;-95
2022/06/12 09:27:37;;;;;;;2.63;2.40;;;26.70;62.90;;;27.43;38.20;99118.78;4884411;28;124702;-93
2022/06/12 09:30:10;;;;;;;2.80;2.37;;;26.80;62.50;;;27.48;37.80;99123.97;4868265;28;122713;-93
2022/06/12 09:33:01;;;;;;;2.30;2.10;;;26.90;62.30;;;27.53;37.71;99128.41;4864310;28;118126;-93
2022/06/12 09:36:14;;;;;;;2.10;1.90;;;26.90;61.90;;;27.58;37.49;99124.31;4872975;28;118922;-93
2022/06/12 09:39:02;;;;;;;2.03;1.57;;;27.00;61.20;;;27.63;37.45;99119.00;4895025;28;123295;-93
2022/06/12 09:41:39;;;;;;;3.53;2.10;;;27.00;60.70;;;27.67;36.84;99113.28;4876900;28;124448;-93
2022/06/12 09:44:18;;;;;;;2.83;2.40;;;27.10;60.30;;;27.68;37.26;99114.91;4878829;28;118956;-93
2022/06/12 09:47:05;;;;;;;2.90;2.50;;;27.10;60.20;;;27.68;36.59;99115.69;4856674;28;118335;-91
2022/06/12 09:50:04;;;;;;;5.13;2.37;;;27.10;59.80;;;27.67;36.60;99108.41;4860148;28;123325;-92
2022/06/12 09:52:56;;;;;;;3.37;2.50;;;27.10;59.40;;;27.72;36.77;99101.47;4883529;28;123029;-92
2022/06/12 09:55:36;;;;;;;3.47;2.50;;;27.20;59.40;;;27.76;36.46;99094.53;4880466;28;119843;-93
2022/06/12 09:58:23;;;;;;;2.67;2.03;;;27.20;59.10;;;27.81;36.13;99090.47;4856507;28;119108;-91
2022/06/12 10:01:07;;;;;;;3.27;2.10;;;27.20;59.10;;;27.87;36.33;99093.63;4873197;28;124740;-91
2022/06/12 10:03:46;;;;;;;4.30;2.20;;;27.20;58.50;;;27.91;35.75;99100.06;4864722;28;123687;-95
2022/06/12 10:06:24;;;;;;;3.60;2.80;;;27.30;58.10;;;27.94;35.93;99082.19;4874471;28;118660;-91
2022/06/12 10:09:15;;;;;;;4.17;2.83;;;27.30;57.90;;;27.97;35.67;99087.03;4864651;28;118574;-91
2022/06/12 10:12:00;;;;;;;4.30;2.67;;;27.40;57.70;;;28.03;35.42;99085.34;4858118;28;124042;-93
2022/06/12 10:14:55;;;;;;;4.60;2.43;;;27.40;57.80;;;28.07;35.14;99071.88;4861090;28;123868;-90
2022/06/12 10:17:35;;;;;;;5.13;2.70;;;27.50;57.70;;;28.10;35.17;99073.91;4874614;28;118971;-92
2022/06/12 10:20:15;;;;;;;3.30;2.57;;;27.50;56.60;;;28.14;35.29;99068.97;4873258;28;118433;-92
2022/06/12 10:22:46;;;;;;;3.23;2.63;;;27.60;56.90;;;28.23;35.21;99076.16;4873290;28;124003;-92
2022/06/12 10:25:37;;;;;;;3.73;2.40;;;27.60;56.90;;;28.29;35.24;99075.28;4858686;28;122894;-93
2022/06/12 10:28:15;;;;;;;3.03;2.33;;;27.70;56.70;;;28.34;34.72;99076.81;4860927;28;119985;-92
2022/06/12 10:30:46;;;;;;;3.07;2.20;;;27.80;56.40;;;28.35;34.66;99064.22;4883598;28;119066;-91
2022/06/12 10:33:31;;;;;;;4.17;2.90;;;27.80;56.10;;;28.34;34.61;99054.88;4866891;28;124442;-90
2022/06/12 10:36:03;;;;;;;4.03;1.93;;;27.80;55.80;;;28.35;34.43;99050.81;4870379;28;121716;-92
2022/06/12 10:38:34;;;;;;;3.73;2.50;;;27.80;55.60;;;28.41;34.57;99054.00;4869430;28;118355;-92
2022/06/12 10:41:06;;;;;;;3.47;2.50;;;27.80;55.50;;;28.48;34.33;99056.78;4863872;28;118667;-91
2022/06/12 10:43:43;;;;;;;6.93;2.00;;;27.90;55.50;;;28.55;34.47;99053.00;4859834;28;123155;-91
2022/06/12 10:46:30;;;;;;;2.77;1.97;;;28.00;55.50;;;28.60;34.42;99055.38;4862473;28;123878;-91
2022/06/12 10:49:14;;;;;;;3.30;2.30;;;28.00;55.40;;;28.67;34.59;99048.75;4857450;28;120311;-91
2022/06/12 10:51:42;;;;;;;16.93;10.20;;;28.10;55.40;;;28.72;34.25;99043.44;4862305;28;119857;-91
2022/06/12 10:54:27;;;;;;;9.33;5.93;;;28.10;55.30;;;28.76;33.99;99037.66;4874398;28;124311;-91
2022/06/12 10:57:11;;;;;;;8.60;5.87;;;28.20;55.00;;;28.78;34.09;99038.06;4861860;28;122910;-91
2022/06/12 11:00:08;;;;;;;9.30;5.93;;;28.20;54.80;;;28.80;33.80;99029.88;4841979;28;118473;-91
2022/06/12 11:03:12;;;;;;;11.10;6.93;;;28.20;54.40;;;28.83;34.04;99029.84;4866143;28;118997;-90
2022/06/12 11:05:47;;;;;;;9.33;5.30;;;28.30;54.60;;;28.89;33.82;99030.16;4873794;28;124087;-91
2022/06/12 11:08:50;;;;;;;7.63;4.47;;;28.40;54.50;;;28.87;33.98;99017.59;4872250;28;123222;-92
2022/06/12 11:11:45;;;;;;;5.67;3.47;;;28.40;54.40;;;28.88;33.81;99016.34;4880824;28;119806;-91
2022/06/12 11:14:33;;;;;;;5.70;2.87;;;28.40;54.20;;;28.89;33.90;99010.25;4865546;28;118884;-91
2022/06/12 11:17:36;;;;;;;4.40;2.37;;;28.30;54.00;;;28.94;33.81;99020.34;4871353;28;122106;-92
2022/06/12 11:20:27;;;;;;;3.80;2.33;;;28.40;53.90;;;28.97;33.24;99010.94;4883393;28;123960;-90
2022/06/12 11:23:31;;;;;;;3.63;2.10;;;28.40;53.30;;;28.92;33.02;99012.22;4884094;28;119928;-91
2022/06/12 11:26:21;;;;;;;2.80;1.93;;;28.40;53.00;;;28.94;33.43;99009.75;4866327;28;119210;-91
2022/06/12 11:29:30;;;;;;;2.60;2.17;;;28.00;52.80;;;29.03;33.30;98992.91;4875672;28;123597;-92
2022/06/12 11:32:23;;;;;;;2.43;1.93;;;28.50;53.20;;;29.17;33.06;99005.31;4859203;28;122999;-91
2022/06/12 11:35:45;;;;;;;5.30;2.80;;;28.60;53.00;;;29.25;32.43;98999.06;4879393;28;119477;-91
2022/06/12 11:39:09;;;;;;;4.93;2.40;;;28.70;51.80;;;29.32;32.36;98983.91;4861354;28;119421;-91
2022/06/12 11:41:54;;;;;;;4.67;2.27;;;28.70;51.80;;;29.44;32.06;98988.94;4801095;29;123460;-89
2022/06/12 11:44:56;;;;;;;3.27;2.60;;;28.80;51.30;;;29.55;31.90;98977.34;4883895;28;124209;-91
2022/06/12 11:47:53;;;;;;;8.00;2.97;;;28.90;51.50;;;29.69;31.71;98979.94;4876766;28;120289;-91
2022/06/12 11:51:00;;;;;;;3.20;2.30;;;29.00;51.40;;;29.86;31.89;98983.66;4862695;28;119162;-89
2022/06/12 11:53:44;;;;;;;3.90;2.33;;;29.20;51.20;;;29.98;31.89;98982.19;4872335;28;123207;-88
2022/06/12 11:56:29;;;;;;;3.00;2.20;;;29.30;51.00;;;30.03;31.32;98973.13;4876914;28;123928;-86
2022/06/12 11:59:22;;;;;;;2.70;1.83;;;29.40;50.70;;;30.09;31.74;98964.84;4865019;28;119180;-86
2022/06/12 12:02:16;;;;;;;2.77;1.93;;;29.50;50.60;;;30.19;31.36;98971.56;4873589;28;118943;-88
2022/06/12 12:05:20;;;;;;;3.70;2.30;;;29.60;50.70;;;30.28;30.86;98966.91;4868889;28;122082;-89
2022/06/12 12:08:40;;;;;;;3.43;1.70;;;29.70;49.90;;;30.34;30.80;98965.13;4893802;28;123863;-87
2022/06/12 12:11:14;;;;;;;2.93;1.97;;;29.80;49.90;;;30.48;30.51;98958.28;4853566;28;119538;-89
2022/06/12 12:13:53;;;;;;;3.43;2.20;;;29.90;49.70;;;30.54;30.60;98956.50;4868145;28;119522;-88
2022/06/12 12:16:43;;;;;;;4.47;2.20;;;29.90;48.80;;;30.62;30.64;98957.13;4860801;28;124163;-88
2022/06/12 12:19:24;;;;;;;1.93;1.83;;;30.00;48.90;;;30.71;30.27;98951.63;4866054;28;124066;-87
2022/06/12 12:21:58;;;;;;;4.37;2.73;;;30.10;48.70;;;30.77;29.82;98949.81;4873014;28;119310;-86
2022/06/12 12:24:32;;;;;;;2.50;1.77;;;30.20;48.30;;;30.89;30.19;98944.66;4881998;28;118299;-86
2022/06/12 12:27:03;;;;;;;4.63;2.40;;;30.20;48.40;;;31.02;30.38;98956.97;4858196;28;122992;-85
2022/06/12 12:29:34;;;;;;;2.90;2.03;;;30.40;48.80;;;31.19;29.77;98950.00;4859837;28;123925;-85
2022/06/12 12:32:05;;;;;;;3.47;2.40;;;30.50;48.60;;;31.33;29.49;98943.09;4870515;28;119732;-86
2022/06/12 12:34:33;;;;;;;3.27;2.10;;;30.60;48.20;;;31.39;29.35;98941.31;4870377;28;118278;-85
2022/06/12 12:42:42;;;;;;;2.83;2.20;;;30.80;47.60;;;31.38;29.10;98938.88;4864611;28;120844;-85
2022/06/12 12:45:23;;;;;;;4.87;2.30;;;30.80;47.20;;;31.38;29.07;98934.00;4873627;28;120565;-86
2022/06/12 12:47:59;;;;;;;2.90;1.80;;;30.90;47.10;;;31.38;29.54;98933.19;4871385;28;122315;-87
2022/06/12 12:50:27;;;;;;;3.57;2.47;;;30.90;46.90;;;31.36;29.11;98942.19;4884526;28;124030;-87
2022/06/12 12:52:57;;;;;;;2.13;1.90;;;30.80;46.80;;;31.34;29.23;98932.47;4866999;28;120568;-88
2022/06/12 12:55:30;;;;;;;3.50;2.40;;;30.80;46.80;;;31.30;29.15;98920.31;4887106;28;118881;-87
2022/06/12 12:58:02;;;;;;;3.20;2.03;;;30.80;46.60;;;31.27;29.05;98922.03;4867928;28;123765;-87
2022/06/12 13:00:34;;;;;;;2.60;1.80;;;30.80;46.60;;;31.27;29.23;98930.59;4870640;28;123600;-88
2022/06/12 13:03:06;;;;;;;1.90;1.70;;;30.80;47.00;;;31.28;29.38;98917.13;4864207;28;119333;-88
2022/06/12 13:05:48;;;;;;;2.10;1.80;;;30.80;47.10;;;31.27;29.65;98927.72;4879420;28;118066;-87
2022/06/12 13:09:09;;;;;;;3.07;1.93;;;30.80;46.90;;;31.24;29.74;98926.56;4880507;28;123825;-88
2022/06/12 13:12:14;;;;;;;2.33;1.70;;;30.80;46.40;;;31.18;28.94;98914.13;4815985;29;123418;-88
2022/06/12 13:15:15;;;;;;;2.10;1.77;;;30.80;46.00;;;31.13;28.89;98923.22;4794290;29;120087;-87
2022/06/12 13:18:26;;;;;;;3.67;2.13;;;30.70;45.70;;;31.06;29.31;98911.19;4863657;28;118656;-88
2022/06/12 13:21:14;;;;;;;3.63;2.30;;;30.70;46.00;;;31.04;29.17;98911.66;4870333;28;124155;-87
2022/06/12 13:24:01;;;;;;;2.27;1.70;;;30.60;46.10;;;31.00;29.28;98911.78;4880972;28;125446;-91
2022/06/12 13:26:32;;;;;;;1.50;1.40;;;30.60;46.50;;;31.01;29.40;98906.84;4859727;28;118389;-92
2022/06/12 13:29:02;;;;;;;2.33;2.00;;;30.50;46.50;;;30.99;29.48;98909.34;4864501;28;118179;-91
2022/06/12 13:31:34;;;;;;;2.20;1.90;;;30.50;46.20;;;30.98;29.41;98913.47;4865799;28;125071;-94